createdAt,value
2023-04-14T00:00:03.827Z,47.08
2023-04-14T00:02:40.174Z,47.41
2023-04-14T00:05:08.735Z,47.01
2023-04-14T00:07:36.443Z,47.02
2023-04-14T00:10:04.444Z,46.89
2023-04-14T00:12:31.960Z,47.53
2023-04-14T00:14:59.508Z,47.67
2023-04-14T00:17:27.098Z,48.03
2023-04-14T00:19:54.623Z,47.95
2023-04-14T00:22:22.740Z,48.58
2023-04-14T00:24:50.795Z,48.61
2023-04-14T00:27:18.305Z,48.66
2023-04-14T00:29:45.855Z,48.75
2023-04-14T00:32:13.548Z,48.79
2023-04-14T00:34:41.026Z,48.86
2023-04-14T00:37:08.557Z,48.49
2023-04-14T00:39:36.273Z,48.47
2023-04-14T00:42:04.650Z,48.54
2023-04-14T00:44:32.160Z,48.13
2023-04-14T00:47:01.693Z,48.30
2023-04-14T00:49:29.403Z,48.22
2023-04-14T00:51:57.734Z,48.14
2023-04-14T00:54:27.995Z,47.85
2023-04-14T00:56:57.868Z,47.98
2023-04-14T00:59:25.748Z,47.62
2023-04-14T01:01:54.780Z,47.79
2023-04-14T01:04:23.048Z,47.79
2023-04-14T01:06:50.712Z,47.46
2023-04-14T01:09:18.214Z,47.44
2023-04-14T01:12:20.253Z,47.36
2023-04-14T01:15:10.820Z,47.43
2023-04-14T01:17:53.043Z,47.35
2023-04-14T01:20:36.232Z,47.27
2023-04-14T01:23:13.096Z,47.32
2023-04-14T01:26:13.942Z,47.60
2023-04-14T01:29:29.647Z,47.39
2023-04-14T01:32:10.183Z,47.78
2023-04-14T01:34:53.944Z,47.28
2023-04-14T01:37:47.230Z,47.41
2023-04-14T01:40:18.368Z,47.52
2023-04-14T01:43:04.790Z,47.38
2023-04-14T01:45:51.342Z,47.45
2023-04-14T01:48:19.588Z,47.28
2023-04-14T01:50:48.633Z,47.50
2023-04-14T01:53:18.149Z,47.16
2023-04-14T01:55:49.068Z,47.17
2023-04-14T01:58:19.113Z,46.92
2023-04-14T02:00:47.695Z,46.92
2023-04-14T02:03:21.639Z,46.74
2023-04-14T02:05:51.283Z,46.70
2023-04-14T02:08:20.170Z,47.00
2023-04-14T02:10:52.112Z,46.91
2023-04-14T02:13:21.446Z,46.59
2023-04-14T02:15:51.140Z,46.73
2023-04-14T02:18:22.972Z,46.50
2023-04-14T02:20:52.731Z,46.56
2023-04-14T02:23:20.508Z,46.51
2023-04-14T02:26:04.775Z,46.77
2023-04-14T02:28:34.215Z,46.62
2023-04-14T02:31:08.736Z,46.32
2023-04-14T02:33:39.351Z,46.50
2023-04-14T02:36:21.009Z,46.52
2023-04-14T02:39:00.798Z,46.58
2023-04-14T02:41:32.935Z,46.43
2023-04-14T02:44:24.546Z,46.56
2023-04-14T02:47:07.345Z,46.61
2023-04-14T02:49:43.253Z,46.63
2023-04-14T02:52:15.337Z,47.08
2023-04-14T02:54:46.141Z,46.94
2023-04-14T02:57:15.623Z,47.00
2023-04-14T02:59:47.612Z,47.06
2023-04-14T03:02:17.890Z,46.88
2023-04-14T03:04:51.306Z,47.23
2023-04-14T03:07:29.274Z,47.20
2023-04-14T03:09:58.063Z,47.59
2023-04-14T03:12:28.063Z,47.43
2023-04-14T03:14:58.069Z,47.37
2023-04-14T03:17:27.402Z,47.52
2023-04-14T03:19:56.383Z,47.57
2023-04-14T03:22:28.075Z,47.52
2023-04-14T03:24:58.749Z,47.79
2023-04-14T03:27:31.464Z,47.64
2023-04-14T03:30:06.812Z,47.85
2023-04-14T03:32:41.916Z,48.23
2023-04-14T03:35:14.849Z,48.04
2023-04-14T03:37:44.578Z,48.17
2023-04-14T03:40:14.480Z,48.00
2023-04-14T03:42:45.901Z,48.05
2023-04-14T03:45:18.262Z,48.49
2023-04-14T03:47:46.710Z,48.42
2023-04-14T03:50:16.340Z,48.33
2023-04-14T03:52:49.754Z,48.06
2023-04-14T03:55:19.433Z,47.94
2023-04-14T03:57:50.174Z,47.91
2023-04-14T04:00:20.039Z,48.33
2023-04-14T04:02:49.970Z,48.36
2023-04-14T04:05:18.353Z,48.66
2023-04-14T04:07:46.640Z,48.41
2023-04-14T04:10:16.270Z,48.60
2023-04-14T04:12:46.656Z,48.68
2023-04-14T04:15:14.750Z,48.76
2023-04-14T04:17:47.211Z,48.91
2023-04-14T04:20:19.261Z,49.22
2023-04-14T04:22:51.903Z,49.06
2023-04-14T04:25:20.566Z,48.82
2023-04-14T04:27:57.260Z,48.78
2023-04-14T04:30:27.639Z,48.79
2023-04-14T04:32:55.542Z,48.77
2023-04-14T04:35:24.629Z,49.26
2023-04-14T04:37:53.464Z,48.89
2023-04-14T04:40:21.113Z,48.99
2023-04-14T04:42:50.790Z,49.00
2023-04-14T04:45:49.960Z,48.97
2023-04-14T04:48:17.498Z,48.63
2023-04-14T04:50:45.509Z,48.82
2023-04-14T04:53:13.869Z,48.57
2023-04-14T04:55:42.551Z,49.01
2023-04-14T04:58:10.447Z,49.06
2023-04-14T05:00:37.979Z,49.27
2023-04-14T05:03:05.654Z,48.95
2023-04-14T05:05:37.135Z,49.12
2023-04-14T05:08:04.961Z,49.08
2023-04-14T05:10:36.563Z,48.93
2023-04-14T05:13:04.197Z,48.91
2023-04-14T05:15:31.732Z,49.12
2023-04-14T05:17:59.304Z,49.02
2023-04-14T05:20:26.861Z,49.36
2023-04-14T05:22:54.344Z,49.17
2023-04-14T05:25:22.108Z,49.58
2023-04-14T05:27:49.580Z,49.19
2023-04-14T05:30:17.074Z,49.37
2023-04-14T05:32:44.625Z,49.08
2023-04-14T05:35:12.158Z,49.04
2023-04-14T05:37:39.668Z,48.87
2023-04-14T05:40:08.115Z,49.06
2023-04-14T05:42:35.680Z,49.29
2023-04-14T05:45:04.123Z,48.83
2023-04-14T05:47:31.937Z,48.64
2023-04-14T05:49:59.866Z,49.40
2023-04-14T05:52:27.330Z,49.21
2023-04-14T05:54:55.182Z,49.10
2023-04-14T05:57:22.745Z,48.51
2023-04-14T05:59:50.222Z,48.60
2023-04-14T06:02:17.825Z,48.63
2023-04-14T06:04:46.425Z,48.25
2023-04-14T06:07:13.954Z,48.71
2023-04-14T06:09:42.670Z,48.50
2023-04-14T06:12:10.317Z,48.37
2023-04-14T06:14:37.787Z,48.38
2023-04-14T06:17:05.284Z,48.19
2023-04-14T06:19:32.794Z,48.48
2023-04-14T06:22:00.342Z,48.91
2023-04-14T06:24:27.932Z,48.40
2023-04-14T06:26:56.139Z,48.41
2023-04-14T06:29:23.623Z,48.25
2023-04-14T06:31:51.861Z,48.54
2023-04-14T06:34:19.405Z,48.17
2023-04-14T06:36:46.879Z,48.17
2023-04-14T06:39:14.370Z,48.08
2023-04-14T06:41:41.944Z,48.21
2023-04-14T06:44:13.386Z,48.32
2023-04-14T06:46:40.861Z,48.30
2023-04-14T06:49:08.464Z,47.92
2023-04-14T06:51:35.940Z,48.08
2023-04-14T06:54:03.934Z,48.32
2023-04-14T06:56:31.536Z,48.02
2023-04-14T06:59:02.574Z,48.06
2023-04-14T07:01:30.084Z,48.06
2023-04-14T07:03:57.660Z,47.88
2023-04-14T07:06:26.369Z,48.06
2023-04-14T07:08:55.889Z,47.93
2023-04-14T07:11:23.405Z,47.89
2023-04-14T07:13:50.908Z,47.58
2023-04-14T07:16:18.429Z,47.93
2023-04-14T07:18:45.911Z,48.03
2023-04-14T07:21:13.398Z,47.30
2023-04-14T07:23:40.968Z,48.09
2023-04-14T07:26:08.460Z,47.81
2023-04-14T07:28:35.932Z,47.50
2023-04-14T07:31:10.308Z,47.33
2023-04-14T07:33:37.851Z,47.45
2023-04-14T07:36:05.454Z,47.00
2023-04-14T07:38:33.399Z,47.36
2023-04-14T07:41:05.844Z,47.32
2023-04-14T07:43:36.772Z,46.92
2023-04-14T07:46:06.877Z,47.42
2023-04-14T07:48:38.416Z,46.86
2023-04-14T07:51:06.296Z,47.03
2023-04-14T07:53:34.462Z,46.89
2023-04-14T07:56:02.205Z,46.72
2023-04-14T07:58:30.041Z,46.93
2023-04-14T08:00:58.205Z,47.08
2023-04-14T08:03:26.105Z,46.39
2023-04-14T08:05:53.724Z,46.42
2023-04-14T08:08:21.204Z,46.59
2023-04-14T08:10:48.698Z,46.34
2023-04-14T08:13:16.204Z,46.60
2023-04-14T08:15:43.674Z,46.23
2023-04-14T08:18:11.172Z,46.09
2023-04-14T08:20:38.713Z,46.03
2023-04-14T08:23:06.170Z,46.02
2023-04-14T08:25:33.854Z,45.29
2023-04-14T08:28:01.421Z,45.18
2023-04-14T08:30:29.282Z,45.81
2023-04-14T08:32:58.903Z,45.59
2023-04-14T08:35:36.973Z,45.37
2023-04-14T08:38:08.925Z,45.47
2023-04-14T08:40:47.633Z,45.63
2023-04-14T08:43:15.676Z,44.93
2023-04-14T08:45:44.072Z,44.96
2023-04-14T08:48:14.668Z,45.04
2023-04-14T08:51:02.258Z,43.61
2023-04-14T08:53:32.070Z,43.74
2023-04-14T08:56:04.321Z,44.53
2023-04-14T08:58:32.292Z,43.25
2023-04-14T09:01:00.165Z,42.93
2023-04-14T09:03:28.191Z,42.95
2023-04-14T09:05:56.547Z,43.24
2023-04-14T09:08:24.401Z,42.91
2023-04-14T09:10:51.953Z,42.80
2023-04-14T09:13:22.755Z,42.04
2023-04-14T09:15:50.881Z,42.22
2023-04-14T09:18:18.517Z,42.12
2023-04-14T09:21:28.716Z,41.08
2023-04-14T09:23:41.614Z,41.38
2023-04-14T09:26:10.388Z,41.72
2023-04-14T09:28:38.124Z,41.71
2023-04-14T09:31:06.079Z,41.88
2023-04-14T09:33:38.931Z,40.25
2023-04-14T09:36:06.576Z,40.18
2023-04-14T09:38:39.147Z,40.04
2023-04-14T09:41:07.207Z,40.38
2023-04-14T09:43:36.590Z,40.88
2023-04-14T09:46:10.784Z,40.37
2023-04-14T09:48:56.279Z,38.71
2023-04-14T09:51:28.736Z,40.15
2023-04-14T09:54:04.798Z,39.68
2023-04-14T09:56:33.042Z,39.58
2023-04-14T09:59:02.446Z,39.67
2023-04-14T10:01:33.877Z,39.70
2023-04-14T10:04:02.776Z,38.73
2023-04-14T10:06:32.120Z,39.23
2023-04-14T10:09:01.623Z,39.83
2023-04-14T10:11:32.803Z,39.99
2023-04-14T10:14:06.193Z,39.36
2023-04-14T10:16:34.627Z,39.81
2023-04-14T10:19:03.759Z,39.33
2023-04-14T10:21:32.334Z,39.91
2023-04-14T10:24:01.127Z,39.12
2023-04-14T10:26:29.887Z,38.22
2023-04-14T10:28:57.503Z,38.51
2023-04-14T10:31:42.448Z,38.68
2023-04-14T10:34:15.671Z,38.86
2023-04-14T10:36:44.196Z,38.82
2023-04-14T10:39:12.749Z,38.62
2023-04-14T10:41:48.406Z,38.62
2023-04-14T10:44:33.024Z,38.35
2023-04-14T10:47:04.679Z,38.36
2023-04-14T10:49:41.475Z,38.48
2023-04-14T10:52:14.784Z,37.48
2023-04-14T10:54:51.939Z,37.42
2023-04-14T10:57:23.794Z,37.42
2023-04-14T10:59:55.817Z,37.00
2023-04-14T11:02:31.226Z,37.31
2023-04-14T11:05:08.417Z,37.32
2023-04-14T11:07:45.722Z,36.76
2023-04-14T11:10:19.447Z,36.37
2023-04-14T11:12:54.209Z,36.10
2023-04-14T11:15:21.858Z,35.52
2023-04-14T11:17:49.933Z,35.45
2023-04-14T11:20:22.823Z,36.07
2023-04-14T11:22:52.747Z,35.60
2023-04-14T11:25:24.581Z,35.86
2023-04-14T11:27:52.770Z,34.99
2023-04-14T11:30:21.416Z,35.11
2023-04-14T11:32:53.655Z,34.91
2023-04-14T11:35:24.869Z,34.76
2023-04-14T11:37:57.213Z,34.54
2023-04-14T11:40:27.352Z,33.79
2023-04-14T11:42:58.427Z,33.60
2023-04-14T11:45:30.291Z,34.39
2023-04-14T11:48:06.902Z,34.40
2023-04-14T11:50:38.993Z,34.65
2023-04-14T11:53:12.007Z,34.35
2023-04-14T11:55:48.152Z,34.01
2023-04-14T11:58:24.855Z,34.13
2023-04-14T12:00:56.027Z,34.17
2023-04-14T12:03:29.258Z,33.67
2023-04-14T12:06:01.542Z,33.80
2023-04-14T12:08:33.368Z,33.33
2023-04-14T12:11:17.378Z,32.14
2023-04-14T12:13:47.166Z,32.08
2023-04-14T12:16:16.881Z,32.40
2023-04-14T12:18:44.829Z,31.97
2023-04-14T12:21:18.834Z,31.32
2023-04-14T12:23:50.914Z,31.72
2023-04-14T12:26:20.070Z,31.23
2023-04-14T12:28:57.028Z,31.79
2023-04-14T12:31:31.972Z,31.39
2023-04-14T12:34:03.514Z,31.70
2023-04-14T12:36:48.119Z,31.02
2023-04-14T12:39:17.069Z,31.36
2023-04-14T12:41:45.093Z,31.38
2023-04-14T12:44:16.151Z,31.32
2023-04-14T12:46:52.611Z,30.88
2023-04-14T12:49:36.275Z,31.12
2023-04-14T12:52:05.266Z,30.68
2023-04-14T12:54:46.742Z,29.60
2023-04-14T12:57:14.219Z,30.06
2023-04-14T12:59:41.761Z,29.95
2023-04-14T13:02:10.088Z,29.78
2023-04-14T13:04:37.728Z,29.59
2023-04-14T13:07:05.203Z,29.47
2023-04-14T13:09:32.780Z,29.99
2023-04-14T13:12:00.260Z,28.77
2023-04-14T13:14:27.762Z,29.02
2023-04-14T13:16:56.225Z,28.82
2023-04-14T13:19:23.942Z,28.67
2023-04-14T13:21:51.429Z,28.60
2023-04-14T13:24:18.945Z,28.18
2023-04-14T13:26:46.442Z,28.35
2023-04-14T13:29:14.129Z,28.35
2023-04-14T13:31:41.673Z,28.03
2023-04-14T13:34:10.696Z,27.95
2023-04-14T13:36:38.577Z,27.96
2023-04-14T13:39:06.267Z,27.62
2023-04-14T13:41:33.812Z,27.38
2023-04-14T13:44:01.297Z,27.24
2023-04-14T13:46:28.872Z,26.71
2023-04-14T13:48:56.523Z,27.06
2023-04-14T13:51:24.036Z,27.05
2023-04-14T13:53:53.157Z,26.74
2023-04-14T13:56:22.609Z,26.93
2023-04-14T13:58:50.317Z,26.10
2023-04-14T14:01:18.162Z,26.51
2023-04-14T14:03:46.757Z,26.63
2023-04-14T14:06:14.448Z,26.60
2023-04-14T14:08:42.398Z,27.08
2023-04-14T14:11:10.648Z,26.58
2023-04-14T14:13:39.638Z,26.04
2023-04-14T14:16:10.210Z,26.32
2023-04-14T14:18:38.418Z,25.60
2023-04-14T14:21:06.576Z,24.79
2023-04-14T14:23:34.144Z,25.32
2023-04-14T14:26:01.600Z,25.11
2023-04-14T14:28:29.118Z,25.19
2023-04-14T14:30:56.647Z,25.11
2023-04-14T14:33:24.157Z,25.00
2023-04-14T14:35:52.213Z,25.16
2023-04-14T14:38:19.685Z,24.94
2023-04-14T14:40:47.216Z,25.01
2023-04-14T14:43:14.682Z,24.07
2023-04-14T14:45:42.180Z,24.04
2023-04-14T14:48:11.586Z,24.14
2023-04-14T14:50:39.154Z,24.13
2023-04-14T14:53:07.041Z,23.27
2023-04-14T14:55:35.111Z,23.01
2023-04-14T14:58:03.844Z,22.39
2023-04-14T15:00:31.369Z,22.09
2023-04-14T15:02:59.007Z,21.21
2023-04-14T15:05:27.499Z,22.31
2023-04-14T15:07:55.000Z,21.88
2023-04-14T15:10:22.512Z,22.15
2023-04-14T15:12:50.017Z,22.53
2023-04-14T15:15:19.723Z,22.54
2023-04-14T15:17:47.315Z,22.51
2023-04-14T15:20:15.397Z,22.51
2023-04-14T15:22:42.975Z,22.16
2023-04-14T15:25:10.591Z,22.40
2023-04-14T15:27:38.060Z,21.45
2023-04-14T15:30:06.932Z,22.06
2023-04-14T15:32:34.536Z,22.18
2023-04-14T15:35:02.112Z,21.72
2023-04-14T15:37:29.658Z,21.39
2023-04-14T15:39:57.284Z,21.17
2023-04-14T15:42:24.863Z,21.32
2023-04-14T15:44:52.335Z,21.45
2023-04-14T15:47:19.878Z,21.80
2023-04-14T15:49:48.498Z,21.52
2023-04-14T15:52:17.636Z,21.44
2023-04-14T15:54:45.369Z,21.79
2023-04-14T15:57:12.958Z,21.89
2023-04-14T15:59:40.876Z,22.06
2023-04-14T16:02:08.496Z,21.63
2023-04-14T16:04:36.698Z,21.62
2023-04-14T16:07:04.428Z,21.78
2023-04-14T16:09:31.902Z,22.24
2023-04-14T16:11:59.420Z,22.05
2023-04-14T16:14:35.304Z,22.04
2023-04-14T16:17:02.847Z,22.37
2023-04-14T16:19:30.356Z,22.46
2023-04-14T16:21:57.851Z,22.90
2023-04-14T16:24:25.446Z,22.70
2023-04-14T16:26:53.025Z,22.86
2023-04-14T16:29:20.573Z,22.94
2023-04-14T16:31:48.213Z,22.88
2023-04-14T16:34:18.144Z,23.57
2023-04-14T16:36:46.747Z,23.67
2023-04-14T16:39:14.686Z,23.94
2023-04-14T16:41:42.293Z,23.87
2023-04-14T16:44:09.811Z,24.22
2023-04-14T16:46:37.318Z,24.52
2023-04-14T16:49:06.862Z,24.62
2023-04-14T16:51:34.491Z,24.46
2023-04-14T16:54:02.374Z,24.40
2023-04-14T16:56:30.438Z,24.10
2023-04-14T16:58:58.172Z,24.33
2023-04-14T17:01:26.545Z,24.33
2023-04-14T17:03:54.279Z,24.53
2023-04-14T17:06:21.922Z,24.75
2023-04-14T17:08:49.392Z,25.10
2023-04-14T17:11:16.883Z,24.96
2023-04-14T17:13:44.401Z,25.16
2023-04-14T17:16:12.067Z,25.53
2023-04-14T17:18:39.740Z,25.80
2023-04-14T17:21:07.343Z,25.81
2023-04-14T17:23:39.138Z,25.70
2023-04-14T17:26:06.800Z,25.49
2023-04-14T17:28:35.570Z,25.57
2023-04-14T17:31:09.661Z,26.04
2023-04-14T17:33:37.253Z,26.01
2023-04-14T17:36:05.195Z,26.12
2023-04-14T17:38:34.547Z,26.06
2023-04-14T17:41:03.148Z,26.63
2023-04-14T17:43:30.987Z,26.35
2023-04-14T17:45:58.532Z,26.53
2023-04-14T17:48:27.556Z,26.50
2023-04-14T17:50:55.165Z,26.55
2023-04-14T17:53:22.695Z,26.57
2023-04-14T17:55:51.348Z,26.91
2023-04-14T17:58:20.146Z,26.83
2023-04-14T18:00:47.696Z,27.11
2023-04-14T18:03:16.444Z,26.85
2023-04-14T18:05:44.048Z,27.01
2023-04-14T18:08:11.576Z,26.84
2023-04-14T18:10:39.153Z,26.95
2023-04-14T18:13:06.666Z,27.24
2023-04-14T18:15:34.137Z,26.83
2023-04-14T18:18:01.776Z,27.06
2023-04-14T18:20:29.325Z,27.53
2023-04-14T18:23:01.884Z,27.30
2023-04-14T18:28:03.961Z,27.90
2023-04-14T18:30:31.840Z,28.48
2023-04-14T18:33:00.750Z,29.14
2023-04-14T18:35:29.075Z,29.51
2023-04-14T18:37:56.554Z,29.86
2023-04-14T18:40:25.837Z,30.14
2023-04-14T18:42:55.146Z,30.36
2023-04-14T18:45:22.744Z,30.71
2023-04-14T18:47:50.680Z,30.98
2023-04-14T18:50:20.207Z,31.15
2023-04-14T18:52:47.804Z,31.38
2023-04-14T18:55:15.451Z,31.43
2023-04-14T18:57:42.935Z,31.72
2023-04-14T19:00:13.281Z,31.72
2023-04-14T19:02:41.209Z,31.91
2023-04-14T19:05:09.913Z,32.09
2023-04-14T19:07:37.596Z,32.11
2023-04-14T19:10:06.590Z,32.01
2023-04-14T19:12:34.104Z,32.29
2023-04-14T19:15:02.768Z,32.25
2023-04-14T19:17:35.789Z,31.82
2023-04-14T19:20:04.460Z,31.61
2023-04-14T19:22:31.958Z,31.63
2023-04-14T19:24:59.504Z,31.79
2023-04-14T19:27:26.993Z,32.43
2023-04-14T19:29:54.620Z,32.35
2023-04-14T19:32:22.178Z,32.65
2023-04-14T19:34:49.705Z,32.89
2023-04-14T19:37:17.221Z,33.21
2023-04-14T19:39:45.209Z,33.42
2023-04-14T19:42:12.724Z,33.67
2023-04-14T19:44:40.327Z,33.86
2023-04-14T19:47:07.934Z,33.90
2023-04-14T19:49:36.102Z,34.12
2023-04-14T19:52:04.751Z,34.29
2023-04-14T19:54:32.286Z,34.33
2023-04-14T19:57:00.297Z,34.70
2023-04-14T19:59:29.480Z,34.73
2023-04-14T20:01:56.965Z,35.04
2023-04-14T20:04:24.682Z,34.93
2023-04-14T20:06:53.176Z,35.21
2023-04-14T20:09:20.717Z,35.29
2023-04-14T20:11:48.248Z,35.36
2023-04-14T20:14:16.192Z,35.56
2023-04-14T20:16:44.050Z,36.06
2023-04-14T20:19:11.774Z,35.85
2023-04-14T20:21:39.573Z,35.93
2023-04-14T20:24:07.119Z,35.82
2023-04-14T20:26:35.023Z,36.27
2023-04-14T20:29:02.810Z,36.01
2023-04-14T20:31:30.705Z,36.50
2023-04-14T20:33:58.368Z,36.04
2023-04-14T20:36:26.166Z,36.40
2023-04-14T20:38:53.702Z,36.65
2023-04-14T20:41:21.560Z,36.74
2023-04-14T20:43:49.061Z,36.78
2023-04-14T20:46:16.857Z,37.35
2023-04-14T20:48:44.573Z,37.26
2023-04-14T20:51:12.165Z,36.84
2023-04-14T20:53:39.711Z,37.31
2023-04-14T20:56:07.297Z,37.55
2023-04-14T20:58:34.906Z,37.35
2023-04-14T21:01:02.911Z,37.57
2023-04-14T21:03:34.306Z,37.64
2023-04-14T21:06:02.080Z,37.96
2023-04-14T21:08:29.841Z,38.25
2023-04-14T21:11:15.319Z,38.32
2023-04-14T21:15:27.189Z,38.41
2023-04-14T21:16:32.244Z,38.57
2023-04-14T21:19:02.280Z,38.68
2023-04-14T21:21:30.368Z,38.41
2023-04-14T21:23:57.970Z,38.54
2023-04-14T21:26:26.818Z,38.88
2023-04-14T21:28:54.428Z,38.61
2023-04-14T21:31:21.911Z,38.68
2023-04-14T21:33:49.467Z,38.61
2023-04-14T21:36:17.085Z,38.83
2023-04-14T21:38:45.110Z,38.54
2023-04-14T21:41:13.088Z,38.70
2023-04-14T21:43:40.588Z,38.82
2023-04-14T21:46:08.206Z,38.63
2023-04-14T21:48:36.291Z,38.80
2023-04-14T21:51:03.975Z,38.87
2023-04-14T21:53:32.038Z,38.80
2023-04-14T21:56:09.718Z,38.80
2023-04-14T21:58:39.340Z,39.32
2023-04-14T22:01:07.838Z,39.25
2023-04-14T22:03:37.507Z,39.19
2023-04-14T22:06:05.725Z,39.52
2023-04-14T22:08:34.129Z,39.11
2023-04-14T22:11:04.736Z,39.87
2023-04-14T22:13:32.544Z,39.87
2023-04-14T22:16:00.609Z,39.38
2023-04-14T22:18:30.712Z,39.79
2023-04-14T22:20:58.625Z,39.62
2023-04-14T22:23:26.130Z,39.77
2023-04-14T22:25:53.723Z,39.77
2023-04-14T22:28:21.536Z,40.17
2023-04-14T22:30:49.098Z,39.96
2023-04-14T22:33:16.598Z,39.96
2023-04-14T22:35:44.191Z,40.03
2023-04-14T22:38:12.054Z,40.24
2023-04-14T22:40:40.743Z,40.15
2023-04-14T22:43:08.950Z,39.94
2023-04-14T22:45:41.889Z,40.54
2023-04-14T22:48:10.688Z,40.41
2023-04-14T22:50:39.159Z,40.61
2023-04-14T22:53:06.780Z,40.83
2023-04-14T22:55:34.331Z,40.98
2023-04-14T22:58:02.405Z,41.26
2023-04-14T23:00:29.922Z,41.01
2023-04-14T23:02:59.260Z,41.37
2023-04-14T23:05:27.138Z,41.46
2023-04-14T23:07:54.607Z,41.61
2023-04-14T23:10:22.138Z,41.40
2023-04-14T23:12:49.617Z,41.78
2023-04-14T23:15:18.701Z,41.79
2023-04-14T23:17:46.305Z,41.84
2023-04-14T23:20:13.855Z,41.25
2023-04-14T23:22:41.408Z,41.64
2023-04-14T23:25:09.360Z,41.69
2023-04-14T23:27:36.945Z,41.38
2023-04-14T23:30:05.420Z,41.55
2023-04-14T23:32:33.091Z,41.81
2023-04-14T23:35:00.747Z,41.14
2023-04-14T23:37:28.672Z,41.42
2023-04-14T23:39:56.298Z,41.24
2023-04-14T23:42:23.777Z,41.42
2023-04-14T23:44:51.434Z,41.51
2023-04-14T23:47:19.171Z,41.22
2023-04-14T23:49:46.764Z,41.88
2023-04-14T23:52:14.221Z,41.45
2023-04-14T23:54:41.786Z,41.58
2023-04-14T23:57:09.805Z,41.61
2023-04-14T23:59:38.135Z,41.60
